Time;durP1;ratioP1;P1;durP2;ratioP2;P2;SDS_P1;SDS_P2;PMS_P1;PMS_P2;Temp;Humidity;BMP_temperature;BMP_pressure;BME280_temperature;BME280_humidity;BME280_pressure;Samples;Min_cycle;Max_cycle;Signal;HPM_P1;HPM_P2
2023/10/04 00:00:28;;;;;;;12.18;7.65;;;;;;;15.25;46.01;94582.84;5086327;28;20504;-76
2023/10/04 00:02:54;;;;;;;10.20;7.05;;;;;;;15.29;46.29;94594.47;5084567;28;20644;-76
2023/10/04 00:05:22;;;;;;;13.63;8.80;;;;;;;15.29;46.20;94589.13;5085266;28;20040;-75
2023/10/04 00:07:56;;;;;;;11.40;7.68;;;;;;;15.27;46.09;94588.63;5084772;28;20028;-76
2023/10/04 00:10:23;;;;;;;9.10;6.87;;;;;;;15.18;46.25;94574.50;5085456;28;20047;-76
2023/10/04 00:12:49;;;;;;;11.60;7.50;;;;;;;15.21;46.55;94587.25;5087215;28;20283;-76
2023/10/04 00:15:18;;;;;;;11.05;7.35;;;;;;;15.09;46.46;94573.78;5085262;28;20102;-76
2023/10/04 00:17:45;;;;;;;14.23;8.27;;;;;;;15.08;46.60;94577.56;5085470;28;20043;-75
2023/10/04 00:20:13;;;;;;;13.23;7.05;;;;;;;15.17;46.59;94580.97;5082173;28;20043;-76
2023/10/04 00:22:46;;;;;;;12.50;7.63;;;;;;;15.08;46.54;94572.19;5087955;28;20523;-77
2023/10/04 00:25:16;;;;;;;14.05;7.47;;;;;;;15.12;46.70;94578.47;5088298;28;20043;-76
2023/10/04 00:27:42;;;;;;;13.57;7.68;;;;;;;14.99;46.51;94558.06;5086556;28;20028;-77
2023/10/04 00:30:14;;;;;;;12.90;7.50;;;;;;;15.02;46.77;94582.31;5089981;27;20059;-76
2023/10/04 00:32:40;;;;;;;12.15;7.50;;;;;;;14.94;46.65;94571.63;5083671;28;20043;-76
2023/10/04 00:35:09;;;;;;;13.00;8.05;;;;;;;14.97;46.67;94579.78;5084827;28;20035;-76
2023/10/04 00:37:35;;;;;;;11.43;6.90;;;;;;;14.93;46.66;94572.72;5086703;28;20449;-75
2023/10/04 00:40:09;;;;;;;17.67;8.65;;;;;;;14.94;46.68;94571.63;5084754;27;20112;-76
2023/10/04 00:42:35;;;;;;;16.58;8.63;;;;;;;14.97;46.68;94571.75;5085330;28;20033;-75
2023/10/04 00:45:09;;;;;;;12.07;7.65;;;;;;;14.91;46.74;94567.69;5085529;28;20039;-77
2023/10/04 00:47:35;;;;;;;16.40;8.40;;;;;;;14.98;46.78;94576.03;5086765;28;20047;-75
2023/10/04 00:50:14;;;;;;;16.42;8.30;;;;;;;14.96;46.91;94574.78;5083571;28;20066;-75
2023/10/04 00:52:52;;;;;;;15.23;8.57;;;;;;;14.91;46.73;94567.69;5087030;28;20515;-76
2023/10/04 00:55:19;;;;;;;12.70;7.68;;;;;;;14.88;46.71;94572.91;5085714;28;20038;-76
2023/10/04 00:57:49;;;;;;;13.45;8.68;;;;;;;14.80;46.79;94555.00;5088815;28;20027;-76
2023/10/04 01:00:17;;;;;;;12.95;7.47;;;;;;;14.91;46.82;94573.03;5086745;28;20035;-76
2023/10/04 01:02:49;;;;;;;14.30;7.90;;;;;;;14.88;46.81;94564.88;5086009;28;20071;-75
2023/10/04 01:05:16;;;;;;;11.00;6.88;;;;;;;14.91;46.72;94572.28;5085862;28;20028;-76
2023/10/04 01:07:43;;;;;;;10.65;7.43;;;;;;;14.66;46.68;94538.34;5087138;27;20126;-76
2023/10/04 01:10:15;;;;;;;15.10;7.93;;;;;;;14.75;46.81;94563.19;5086000;28;20779;-76
2023/10/04 01:12:46;;;;;;;13.07;8.23;;;;;;;14.80;46.61;94576.41;5085993;27;20091;-75
2023/10/04 01:18:11;;;;;;;12.95;8.18;;;;;;;14.75;46.97;94573.91;5035693;28;20036;-75
2023/10/04 01:20:38;;;;;;;10.52;7.50;;;;;;;14.75;46.95;94581.94;5083363;28;20495;-77
2023/10/04 01:23:06;;;;;;;14.10;7.90;;;;;;;14.66;46.89;94581.97;5085520;28;20032;-76
2023/10/04 01:25:36;;;;;;;12.07;8.18;;;;;;;14.65;47.24;94585.75;5087241;28;20039;-76
2023/10/04 01:28:11;;;;;;;15.20;7.82;;;;;;;14.47;47.20;94558.19;5084744;28;20104;-76
2023/10/04 01:30:36;;;;;;;;;;;;;;;14.64;47.34;94589.53;5084596;28;20043;-75
2023/10/04 01:33:10;;;;;;;17.30;8.75;;;;;;;14.53;47.28;94572.19;5087511;28;20721;-76
2023/10/04 01:35:35;;;;;;;12.85;8.30;;;;;;;14.52;47.36;94576.00;5083132;28;20070;-75
2023/10/04 01:38:01;;;;;;;13.88;7.85;;;;;;;14.50;47.37;94570.97;5086184;28;20122;-76
2023/10/04 01:40:29;;;;;;;16.60;8.18;;;;;;;14.50;47.70;94572.84;5082248;28;20889;-76
2023/10/04 01:42:59;;;;;;;13.73;7.78;;;;;;;14.46;47.53;94564.69;5090870;28;20024;-76
2023/10/04 01:45:25;;;;;;;15.13;8.43;;;;;;;14.57;47.35;94579.31;5083640;28;20513;-76
2023/10/04 01:47:51;;;;;;;13.80;8.05;;;;;;;14.45;47.51;94565.78;5086062;28;20058;-76
2023/10/04 01:50:17;;;;;;;20.75;8.40;;;;;;;14.54;47.60;94574.59;5082923;28;20089;-75
2023/10/04 01:52:46;;;;;;;11.63;7.65;;;;;;;14.53;47.62;94572.19;5086623;28;20041;-77
2023/10/04 01:55:12;;;;;;;12.63;8.15;;;;;;;14.45;47.69;94571.13;5083049;28;20039;-76
2023/10/04 01:57:39;;;;;;;13.00;7.95;;;;;;;14.54;47.71;94585.31;5085750;28;20040;-77
2023/10/04 02:00:18;;;;;;;12.45;8.43;;;;;;;14.52;47.85;94579.44;5083183;28;20078;-76
2023/10/04 02:02:48;;;;;;;13.68;8.20;;;;;;;14.50;47.79;94573.63;5083152;28;20043;-76
2023/10/04 02:05:19;;;;;;;12.10;8.13;;;;;;;14.48;47.78;94569.69;5084093;28;20600;-75
2023/10/04 02:07:44;;;;;;;12.60;9.02;;;;;;;14.46;47.84;94572.72;5085461;28;20515;-76
2023/10/04 02:10:11;;;;;;;19.02;9.63;;;;;;;14.49;47.48;94577.41;5084694;28;20138;-76
2023/10/04 02:12:37;;;;;;;13.13;9.13;;;;;;;14.44;47.83;94569.56;5086085;28;20020;-76
2023/10/04 02:15:03;;;;;;;12.32;8.10;;;;;;;14.38;47.82;94565.47;5084257;28;20050;-76
2023/10/04 02:17:29;;;;;;;17.55;10.20;;;;;;;14.38;47.78;94565.47;5084733;28;20063;-77
2023/10/04 02:19:56;;;;;;;12.20;8.63;;;;;;;14.46;47.52;94580.75;5085480;28;20047;-75
2023/10/04 02:22:22;;;;;;;14.55;9.27;;;;;;;14.44;47.61;94576.78;5083474;28;20169;-75
2023/10/04 02:24:51;;;;;;;12.80;8.38;;;;;;;14.41;47.65;94577.44;5083233;28;20027;-75
2023/10/04 02:27:17;;;;;;;15.43;8.73;;;;;;;14.41;47.50;94577.44;5084534;28;20031;-76
2023/10/04 02:29:44;;;;;;;14.23;8.70;;;;;;;14.37;47.77;94579.19;5084126;28;20043;-77
2023/10/04 02:32:09;;;;;;;15.80;8.95;;;;;;;14.28;47.87;94563.13;5083498;28;20201;-76
2023/10/04 02:34:36;;;;;;;14.32;8.73;;;;;;;14.30;47.91;94571.63;5085443;28;20517;-75
2023/10/04 02:37:09;;;;;;;15.43;9.45;;;;;;;14.24;48.01;94559.50;5083147;28;20031;-76
2023/10/04 02:39:37;;;;;;;15.77;9.02;;;;;;;14.31;47.76;94578.56;5084493;28;20023;-76
2023/10/04 02:42:09;;;;;;;18.45;8.93;;;;;;;14.28;47.98;94575.72;5084460;28;20035;-75
2023/10/04 02:44:36;;;;;;;14.38;9.63;;;;;;;14.22;47.85;94564.41;5084906;28;20154;-75
2023/10/04 02:47:06;;;;;;;13.80;9.57;;;;;;;14.27;47.65;94574.94;5083427;28;20677;-76
2023/10/04 02:49:38;;;;;;;16.05;9.30;;;;;;;14.24;47.74;94559.50;5083978;28;20069;-75
2023/10/04 02:52:06;;;;;;;13.30;8.52;;;;;;;14.28;47.70;94576.50;5083266;28;20147;-76
2023/10/04 02:54:32;;;;;;;19.08;9.18;;;;;;;14.18;48.44;94579.50;5085534;28;20057;-75
2023/10/04 02:56:58;;;;;;;17.10;9.95;;;;;;;14.12;48.36;94572.75;5086368;28;20047;-76
2023/10/04 02:59:25;;;;;;;13.85;8.80;;;;;;;14.15;48.28;94566.78;5085691;27;20075;-75
2023/10/04 03:01:52;;;;;;;15.05;9.10;;;;;;;14.13;48.09;94580.44;5084611;28;20140;-76
2023/10/04 03:04:20;;;;;;;22.83;8.48;;;;;;;14.02;48.44;94568.53;5087265;28;21433;-75
2023/10/04 03:06:46;;;;;;;14.35;9.13;;;;;;;14.07;48.49;94572.94;5086200;28;20063;-76
2023/10/04 03:09:12;;;;;;;13.63;9.43;;;;;;;14.13;48.51;94579.69;5088039;28;20480;-76
2023/10/04 03:11:39;;;;;;;12.25;8.60;;;;;;;14.13;48.35;94587.72;5088242;28;20024;-76
2023/10/04 03:14:06;;;;;;;15.43;8.38;;;;;;;14.14;48.09;94581.25;5086453;28;20159;-75
2023/10/04 03:16:33;;;;;;;15.85;8.85;;;;;;;13.90;48.04;94543.50;5085722;28;20036;-76
2023/10/04 03:18:59;;;;;;;14.18;8.75;;;;;;;14.13;48.01;94574.34;5086753;28;20542;-76
2023/10/04 03:21:30;;;;;;;12.57;8.52;;;;;;;14.12;48.18;94572.75;5088120;28;20024;-75
2023/10/04 03:23:55;;;;;;;13.95;8.52;;;;;;;14.13;48.17;94574.34;5088200;28;20123;-75
2023/10/04 03:26:21;;;;;;;15.88;8.75;;;;;;;14.01;48.34;94566.16;5085528;28;20384;-76
2023/10/04 03:28:46;;;;;;;16.58;9.18;;;;;;;14.12;48.17;94578.91;5085036;28;20482;-74
2023/10/04 03:31:14;;;;;;;13.90;9.18;;;;;;;14.08;48.17;94572.59;5087503;28;20078;-74
2023/10/04 03:33:42;;;;;;;15.80;9.30;;;;;;;14.12;48.42;94586.94;5089078;28;20028;-73
2023/10/04 03:36:17;;;;;;;17.77;10.32;;;;;;;14.02;48.33;94578.44;5062912;28;20048;-73
2023/10/04 03:38:44;;;;;;;15.63;9.88;;;;;;;14.00;48.30;94572.59;5086466;28;20123;-72
2023/10/04 03:41:09;;;;;;;13.45;8.40;;;;;;;14.08;48.39;94587.88;5069740;28;20489;-73
2023/10/04 03:43:35;;;;;;;11.65;7.90;;;;;;;14.02;48.23;94578.44;5086230;27;20031;-72
2023/10/04 03:46:16;;;;;;;12.43;8.23;;;;;;;14.01;48.17;94587.56;5086558;28;20128;-71
2023/10/04 04:04:35;;;;;;;14.05;9.40;;;;;;;13.88;48.22;94575.13;4980565;28;20096;-72
2023/10/04 04:07:01;;;;;;;16.67;8.82;;;;;;;13.84;48.41;94572.28;5002584;28;20033;-72
2023/10/04 04:09:27;;;;;;;14.30;8.98;;;;;;;13.88;48.80;94588.50;4999138;28;20038;-72
2023/10/04 04:11:54;;;;;;;14.45;9.10;;;;;;;13.86;48.59;94586.13;5003186;28;20045;-72
2023/10/04 04:14:19;;;;;;;16.38;9.38;;;;;;;13.90;48.47;94580.94;4986272;28;20044;-71
2023/10/04 04:16:46;;;;;;;17.60;9.27;;;;;;;13.90;48.59;94576.38;5008187;28;20030;-71
2023/10/04 04:19:14;;;;;;;15.15;8.63;;;;;;;13.92;48.63;94578.75;5004592;28;20061;-71
2023/10/04 04:21:39;;;;;;;12.27;8.10;;;;;;;13.91;48.57;94588.66;5006608;28;20550;-72
2023/10/04 04:24:05;;;;;;;16.23;9.65;;;;;;;13.86;48.55;94578.13;5006691;28;20030;-72
2023/10/04 04:26:30;;;;;;;12.75;9.65;;;;;;;13.87;48.63;94587.72;5004991;28;20134;-71
2023/10/04 04:28:55;;;;;;;16.45;10.07;;;;;;;13.81;48.70;94578.28;5007904;28;20037;-71
2023/10/04 04:31:21;;;;;;;19.23;10.68;;;;;;;13.75;48.82;94576.84;5006654;28;20022;-72
2023/10/04 04:33:46;;;;;;;17.42;9.77;;;;;;;13.69;48.91;94562.09;4995990;28;20095;-71
2023/10/04 04:36:25;;;;;;;20.73;10.10;;;;;;;13.82;48.82;94584.41;5007251;28;20111;-72
2023/10/04 04:38:50;;;;;;;17.98;10.57;;;;;;;13.77;49.16;94576.53;5009652;28;20037;-72
2023/10/04 04:41:21;;;;;;;15.10;8.95;;;;;;;13.78;48.91;94573.56;5005857;28;20505;-72
2023/10/04 04:43:47;;;;;;;14.80;9.65;;;;;;;13.75;49.11;94574.97;5011118;28;20128;-72
2023/10/04 04:46:13;;;;;;;16.52;9.38;;;;;;;13.79;48.96;94574.34;5007228;28;20356;-73
2023/10/04 04:48:39;;;;;;;19.48;10.98;;;;;;;13.75;49.01;94579.53;5010601;28;20069;-72
2023/10/04 04:51:12;;;;;;;13.20;8.75;;;;;;;13.74;49.17;94573.38;5006864;28;20037;-72
2023/10/04 04:53:42;;;;;;;15.65;9.93;;;;;;;13.72;49.39;94580.16;5008380;28;20057;-72
2023/10/04 04:56:12;;;;;;;19.33;9.10;;;;;;;13.57;49.19;94551.19;4989118;28;20476;-72
2023/10/04 04:58:39;;;;;;;18.33;10.00;;;;;;;13.79;49.23;94585.06;4997648;28;20021;-71
2023/10/04 05:01:09;;;;;;;18.15;10.20;;;;;;;13.81;49.39;94580.94;4985637;28;20041;-72
2023/10/04 05:03:34;;;;;;;14.43;9.18;;;;;;;13.73;49.48;94571.84;4978706;28;20548;-73
2023/10/04 05:06:00;;;;;;;19.05;9.00;;;;;;;13.67;49.94;94573.09;4992617;28;20124;-72
2023/10/04 05:08:26;;;;;;;16.67;9.68;;;;;;;13.77;49.94;94588.03;4997067;28;20037;-73
2023/10/04 05:10:54;;;;;;;15.65;10.07;;;;;;;13.84;50.06;94599.03;4993909;28;20049;-71
2023/10/04 05:13:25;;;;;;;22.58;10.25;;;;;;;13.84;49.95;94593.69;4998726;28;20030;-71
2023/10/04 05:15:53;;;;;;;18.73;10.68;;;;;;;13.87;49.96;94600.31;4977790;28;20134;-70
2023/10/04 05:18:18;;;;;;;20.58;12.50;;;;;;;13.90;49.89;94597.00;4998160;28;20057;-72
2023/10/04 05:20:54;;;;;;;22.02;11.85;;;;;;;13.94;50.45;94589.91;4998567;28;20069;-71
2023/10/04 05:23:24;;;;;;;22.10;12.05;;;;;;;13.99;50.07;94592.41;4995951;28;20513;-72
2023/10/04 05:25:52;;;;;;;20.00;13.20;;;;;;;13.97;50.47;94586.63;5000246;28;20037;-72
2023/10/04 05:28:18;;;;;;;32.20;12.48;;;;;;;14.03;50.25;94596.06;4996765;28;20026;-71
2023/10/04 05:30:45;;;;;;;27.42;12.77;;;;;;;14.06;50.31;94598.09;4977501;28;20035;-72
2023/10/04 05:33:13;;;;;;;23.15;12.32;;;;;;;14.10;50.09;94607.06;4995666;28;20046;-71
2023/10/04 05:35:40;;;;;;;24.83;13.77;;;;;;;14.14;50.26;94602.66;4995939;28;20137;-72
2023/10/04 05:38:06;;;;;;;28.45;13.73;;;;;;;14.19;50.21;94605.94;4998407;28;20053;-73
2023/10/04 05:40:34;;;;;;;28.63;15.10;;;;;;;14.18;50.39;94599.03;4986459;28;20038;-73
2023/10/04 05:43:00;;;;;;;23.90;14.45;;;;;;;14.26;50.39;94610.84;4991431;28;20033;-73
2023/10/04 05:45:26;;;;;;;28.77;15.30;;;;;;;14.34;50.30;94612.69;4992837;28;20496;-72
2023/10/04 05:47:52;;;;;;;28.90;14.70;;;;;;;14.35;50.24;94610.81;4998189;28;20083;-74
2023/10/04 05:50:20;;;;;;;23.45;14.98;;;;;;;14.40;50.12;94616.78;4958186;28;20042;-73
2023/10/04 05:52:50;;;;;;;25.75;15.82;;;;;;;14.43;49.89;94618.03;4988327;28;21192;-73
2023/10/04 05:55:20;;;;;;;23.70;14.18;;;;;;;14.46;50.20;94618.22;4989667;28;20018;-72
2023/10/04 05:57:50;;;;;;;22.58;13.43;;;;;;;14.52;49.99;94616.91;4976265;28;20034;-72
2023/10/04 06:02:59;;;;;;;28.77;15.55;;;;;;;14.73;49.33;94617.06;4992549;28;20084;-73
2023/10/04 06:05:27;;;;;;;29.27;15.35;;;;;;;14.82;48.85;94627.75;4996244;28;20033;-73
2023/10/04 06:07:55;;;;;;;24.77;14.90;;;;;;;14.80;49.07;94625.41;4996919;28;20034;-71
2023/10/04 06:10:23;;;;;;;23.60;15.18;;;;;;;14.83;48.87;94623.97;4991526;28;20017;-73
2023/10/04 06:12:50;;;;;;;28.52;15.68;;;;;;;14.82;49.37;94627.75;4996582;28;20041;-71
2023/10/04 06:15:17;;;;;;;27.27;16.30;;;;;;;14.82;49.58;94622.38;4997438;28;20037;-72
2023/10/04 06:17:44;;;;;;;25.70;16.20;;;;;;;14.83;48.64;94634.69;4997027;28;20043;-72
2023/10/04 06:20:27;;;;;;;22.70;13.85;;;;;;;14.87;49.59;94631.03;4989163;28;20054;-71
2023/10/04 06:23:06;;;;;;;24.75;15.75;;;;;;;14.91;48.84;94631.97;4972807;28;20053;-71
2023/10/04 06:25:38;;;;;;;30.67;15.43;;;;;;;14.98;48.44;94629.59;4956393;28;20049;-71
2023/10/04 06:28:11;;;;;;;25.08;14.88;;;;;;;14.84;49.22;94604.13;4966694;28;20112;-72
2023/10/04 06:30:37;;;;;;;26.13;15.25;;;;;;;15.07;49.41;94637.59;4985893;28;20050;-72
2023/10/04 06:33:04;;;;;;;24.95;16.38;;;;;;;15.12;48.41;94637.41;4981098;28;20042;-72
2023/10/04 06:35:32;;;;;;;24.15;16.33;;;;;;;15.26;48.02;94639.88;4982683;28;20066;-76
2023/10/04 06:38:08;;;;;;;26.98;16.80;;;;;;;15.25;48.09;94631.06;4998792;28;20048;-72
2023/10/04 06:40:35;;;;;;;23.60;15.23;;;;;;;15.24;48.72;94634.84;4999317;28;20030;-71
2023/10/04 06:43:05;;;;;;;27.27;15.48;;;;;;;15.36;48.65;94634.94;4998190;28;20038;-70
2023/10/04 06:45:32;;;;;;;34.42;15.73;;;;;;;15.46;47.89;94639.19;4988193;28;20160;-73
2023/10/04 06:47:59;;;;;;;31.70;16.88;;;;;;;15.56;47.59;94646.06;4973709;28;20073;-72
2023/10/04 06:50:32;;;;;;;34.53;19.20;;;;;;;15.55;47.08;94639.16;4975752;28;20061;-72
2023/10/04 06:52:58;;;;;;;33.83;18.08;;;;;;;15.66;47.27;94659.09;4998463;28;20022;-71
2023/10/04 06:55:24;;;;;;;30.70;17.02;;;;;;;15.73;47.45;94657.50;4997979;28;20153;-72
2023/10/04 06:57:50;;;;;;;27.60;17.35;;;;;;;15.74;47.24;94660.97;4999294;28;20119;-71
2023/10/04 07:00:18;;;;;;;35.53;19.17;;;;;;;15.75;47.69;94657.16;4997277;28;20581;-72
2023/10/04 07:02:49;;;;;;;32.42;18.65;;;;;;;15.83;47.66;94656.34;4980245;28;20076;-72
2023/10/04 07:05:19;;;;;;;37.58;18.50;;;;;;;15.90;47.12;94653.91;4973396;28;20088;-72
2023/10/04 07:07:51;;;;;;;30.27;18.05;;;;;;;15.88;46.17;94654.25;4984965;28;20022;-72
2023/10/04 07:10:20;;;;;;;34.53;17.85;;;;;;;15.87;46.70;94651.88;4993921;28;20892;-71
2023/10/04 07:12:46;;;;;;;26.48;16.83;;;;;;;15.93;46.72;94660.53;4996896;28;20496;-73
2023/10/04 07:15:14;;;;;;;35.17;18.13;;;;;;;16.00;46.42;94650.84;4988958;28;20045;-72
2023/10/04 07:17:40;;;;;;;33.10;18.25;;;;;;;16.06;46.08;94654.91;4992445;28;20559;-72
2023/10/04 07:20:14;;;;;;;24.58;16.40;;;;;;;16.01;46.77;94647.06;4988855;28;20508;-73
2023/10/04 07:22:42;;;;;;;34.17;18.23;;;;;;;16.03;47.40;94642.16;4967920;28;20823;-72
2023/10/04 07:25:09;;;;;;;35.40;18.42;;;;;;;16.02;45.83;94621.00;4992368;28;20030;-72
2023/10/04 07:27:35;;;;;;;32.95;18.30;;;;;;;16.17;45.90;94634.63;4991466;28;20460;-72
2023/10/04 07:30:01;;;;;;;32.63;16.60;;;;;;;16.11;45.61;94638.63;4990507;28;20034;-73
2023/10/04 07:32:28;;;;;;;26.23;14.50;;;;;;;16.25;45.12;94631.06;4989736;28;20918;-73
2023/10/04 07:34:54;;;;;;;22.77;14.55;;;;;;;16.27;45.14;94639.59;4991908;28;20037;-71
2023/10/04 07:37:20;;;;;;;21.00;14.60;;;;;;;16.27;44.93;94618.13;4990551;28;20534;-72
2023/10/04 07:39:46;;;;;;;22.30;14.00;;;;;;;16.40;44.62;94635.09;4991829;28;20080;-72
2023/10/04 07:42:12;;;;;;;28.20;13.60;;;;;;;16.41;45.06;94635.88;4971783;28;20034;-72
2023/10/04 07:44:37;;;;;;;27.55;15.50;;;;;;;16.44;44.84;94630.63;4968337;28;20460;-70
2023/10/04 07:47:03;;;;;;;29.33;16.48;;;;;;;16.49;45.16;94629.63;4991855;28;21220;-71
2023/10/04 07:49:29;;;;;;;27.45;15.82;;;;;;;16.53;44.75;94630.53;4989488;28;20606;-71
2023/10/04 07:51:56;;;;;;;24.63;15.40;;;;;;;16.47;45.93;94624.59;4989510;28;20034;-71
2023/10/04 07:54:22;;;;;;;26.92;14.40;;;;;;;16.39;44.41;94627.34;4997947;28;20405;-72
2023/10/04 07:56:51;;;;;;;34.83;15.95;;;;;;;16.30;44.39;94601.38;4999179;28;20590;-73
2023/10/04 07:59:19;;;;;;;24.63;15.23;;;;;;;16.54;44.82;94626.75;4995539;28;20484;-73
2023/10/04 08:01:46;;;;;;;26.10;14.93;;;;;;;16.56;45.01;94624.53;4978669;28;20025;-70
2023/10/04 08:04:12;;;;;;;30.40;15.30;;;;;;;16.56;45.29;94629.88;4994795;28;20056;-72
2023/10/04 08:06:39;;;;;;;23.60;14.70;;;;;;;16.53;45.69;94630.53;4998932;28;20030;-73
2023/10/04 08:09:05;;;;;;;26.63;16.88;;;;;;;16.60;45.59;94625.41;4998658;28;20096;-72
2023/10/04 08:11:34;;;;;;;25.98;16.20;;;;;;;16.69;45.48;94623.44;4999334;28;20026;-72
2023/10/04 08:14:07;;;;;;;26.90;14.85;;;;;;;16.72;44.87;94606.66;4996826;28;20061;-72
2023/10/04 08:16:35;;;;;;;25.60;15.65;;;;;;;16.80;44.32;94613.06;4978093;28;20165;-71
2023/10/04 08:19:03;;;;;;;26.23;16.67;;;;;;;16.86;45.05;94620.59;4996457;28;20038;-72
2023/10/04 08:21:29;;;;;;;22.65;15.93;;;;;;;16.91;44.68;94620.38;4998151;28;20196;-72
2023/10/04 08:23:55;;;;;;;24.85;15.98;;;;;;;17.00;45.47;94613.00;4991878;28;20058;-70
2023/10/04 08:26:22;;;;;;;24.13;15.38;;;;;;;17.13;44.04;94617.28;4997657;28;20025;-72
2023/10/04 08:28:48;;;;;;;26.02;15.65;;;;;;;17.17;44.23;94612.81;4998170;28;20026;-72
2023/10/04 08:31:16;;;;;;;25.77;16.25;;;;;;;17.17;45.04;94607.44;4995426;28;20215;-71
2023/10/04 08:33:43;;;;;;;31.23;16.98;;;;;;;17.16;44.82;94603.16;4994851;28;20038;-72
2023/10/04 08:36:14;;;;;;;22.30;15.35;;;;;;;17.29;44.12;94598.59;4994741;28;20603;-73
2023/10/04 08:38:41;;;;;;;31.50;16.23;;;;;;;17.43;43.92;94600.94;4996809;28;20042;-72
2023/10/04 08:41:07;;;;;;;28.67;17.35;;;;;;;17.41;45.03;94605.84;4995148;28;20040;-73
2023/10/04 08:43:32;;;;;;;26.67;16.08;;;;;;;17.37;44.72;94600.38;4996708;28;20042;-72
2023/10/04 08:45:58;;;;;;;32.15;15.60;;;;;;;17.51;44.32;94600.81;4994200;28;20037;-72
2023/10/04 08:48:25;;;;;;;30.50;16.30;;;;;;;17.58;44.17;94600.25;4997544;28;20044;-71
2023/10/04 08:51:13;;;;;;;28.70;16.67;;;;;;;17.55;44.11;94590.19;4995351;28;20801;-72
2023/10/04 08:54:11;;;;;;;32.10;16.52;;;;;;;17.72;43.61;94598.00;4979431;28;20133;-72
2023/10/04 08:57:13;;;;;;;21.85;14.48;;;;;;;17.77;43.45;94594.28;4995831;28;20037;-73
2023/10/04 08:59:40;;;;;;;28.58;16.27;;;;;;;17.79;43.63;94594.75;4980591;28;20233;-72
2023/10/04 09:02:10;;;;;;;23.83;14.98;;;;;;;17.87;44.01;94602.69;4996255;28;20021;-72
2023/10/04 09:04:39;;;;;;;31.27;15.60;;;;;;;17.74;43.60;94608.44;4998844;28;20053;-72
2023/10/04 09:07:08;;;;;;;26.58;15.60;;;;;;;17.89;43.44;94605.03;4995318;28;20876;-71
2023/10/04 09:09:36;;;;;;;29.15;13.90;;;;;;;18.02;43.28;94602.00;4998100;28;20137;-73
2023/10/04 09:12:03;;;;;;;28.15;15.93;;;;;;;18.11;43.36;94596.47;4997358;28;20694;-72
2023/10/04 09:14:28;;;;;;;27.80;15.75;;;;;;;18.25;43.98;94594.19;4993534;28;20033;-72
2023/10/04 09:17:07;;;;;;;27.95;14.68;;;;;;;18.33;42.94;94589.78;4997646;28;20040;-70
2023/10/04 09:19:33;;;;;;;29.35;15.55;;;;;;;18.34;42.93;94596.72;4993462;28;20765;-72
2023/10/04 09:22:07;;;;;;;22.98;14.27;;;;;;;18.39;42.10;94583.78;4961382;28;20034;-71
2023/10/04 09:24:37;;;;;;;24.70;14.52;;;;;;;18.46;42.28;94583.22;4997154;28;20073;-72
2023/10/04 09:27:03;;;;;;;23.70;14.02;;;;;;;18.51;42.27;94588.34;4997603;28;20037;-72
2023/10/04 09:29:36;;;;;;;27.63;15.15;;;;;;;18.42;42.24;94587.72;4976338;28;20044;-71
2023/10/04 09:32:05;;;;;;;24.25;16.23;;;;;;;18.53;41.99;94590.72;4997256;28;20025;-72
2023/10/04 09:34:33;;;;;;;31.55;13.45;;;;;;;18.53;41.53;94578.00;4996381;28;20038;-70
2023/10/04 09:36:59;;;;;;;21.98;14.70;;;;;;;18.63;41.69;94582.09;4994073;28;20033;-71
2023/10/04 09:39:28;;;;;;;24.15;14.02;;;;;;;18.76;41.20;94589.81;4957302;28;20544;-72
2023/10/04 09:41:56;;;;;;;24.52;14.75;;;;;;;18.84;43.54;94580.00;4968994;28;20049;-72
2023/10/04 09:44:25;;;;;;;26.90;14.63;;;;;;;18.83;41.70;94576.50;4998326;28;20406;-72
2023/10/04 09:46:56;;;;;;;23.65;13.70;;;;;;;18.91;41.94;94576.72;4996873;28;20026;-71
2023/10/04 09:49:28;;;;;;;24.92;13.63;;;;;;;19.07;41.44;94577.47;4978895;28;20049;-71
2023/10/04 09:51:55;;;;;;;23.35;14.20;;;;;;;19.06;41.47;94565.16;4995571;28;20046;-70
2023/10/04 09:54:22;;;;;;;21.55;13.10;;;;;;;19.12;40.45;94571.81;4978236;28;20460;-71
2023/10/04 09:56:51;;;;;;;27.02;13.23;;;;;;;19.19;40.59;94574.69;4996573;28;20034;-70
2023/10/04 09:59:19;;;;;;;27.05;13.18;;;;;;;19.22;41.06;94574.00;4995900;28;20219;-71
2023/10/04 10:01:59;;;;;;;26.60;12.75;;;;;;;18.96;41.04;94560.28;4992784;28;20948;-69
2023/10/04 10:04:35;;;;;;;27.27;13.35;;;;;;;19.17;40.83;94576.94;4996025;28;22961;-71
2023/10/04 10:07:11;;;;;;;24.27;13.27;;;;;;;19.28;40.48;94578.78;4994210;28;20041;-73
2023/10/04 10:09:51;;;;;;;26.92;12.20;;;;;;;19.37;39.61;94559.72;4995831;28;20444;-72
2023/10/04 10:12:20;;;;;;;21.35;12.88;;;;;;;19.52;41.14;94566.25;4972773;28;20044;-71
2023/10/04 10:14:46;;;;;;;22.58;13.20;;;;;;;19.62;42.08;94563.00;4995657;28;20046;-73
2023/10/04 10:17:13;;;;;;;21.83;13.05;;;;;;;19.65;41.84;94554.97;4993926;28;20091;-70
2023/10/04 10:19:38;;;;;;;22.42;12.27;;;;;;;19.71;40.64;94558.97;4975662;28;20053;-70
2023/10/04 10:22:11;;;;;;;20.33;12.18;;;;;;;19.75;40.34;94557.13;4993174;28;20699;-69
2023/10/04 10:25:10;;;;;;;27.50;14.23;;;;;;;19.79;38.81;94548.34;4997102;28;20037;-70
2023/10/04 10:27:36;;;;;;;24.67;13.23;;;;;;;19.85;39.40;94539.59;4993517;28;20045;-73
2023/10/04 10:30:07;;;;;;;25.95;12.32;;;;;;;19.85;38.29;94536.16;4994610;28;20049;-73
2023/10/04 10:32:33;;;;;;;20.35;11.23;;;;;;;19.81;38.70;94535.25;4975394;28;20899;-71
2023/10/04 10:35:04;;;;;;;15.18;9.18;;;;;;;19.91;38.06;94532.00;4990640;28;20029;-73
2023/10/04 10:37:35;;;;;;;19.23;11.77;;;;;;;20.00;39.18;94527.97;4969434;28;20144;-72
2023/10/04 10:40:08;;;;;;;20.33;11.48;;;;;;;20.05;39.23;94524.97;4997502;28;20043;-72
2023/10/04 10:43:08;;;;;;;25.88;11.27;;;;;;;20.13;38.92;94521.28;4991537;28;20147;-73
2023/10/04 10:45:34;;;;;;;23.17;11.18;;;;;;;20.19;38.71;94518.34;4993488;28;20045;-72
2023/10/04 10:48:01;;;;;;;26.67;12.30;;;;;;;20.31;37.64;94515.47;4979771;28;20042;-71
2023/10/04 10:50:38;;;;;;;20.02;10.30;;;;;;;20.39;37.18;94509.84;4994197;28;20022;-73
2023/10/04 10:53:05;;;;;;;23.05;10.15;;;;;;;20.50;36.28;94510.81;4996726;28;20044;-72
2023/10/04 10:55:33;;;;;;;17.92;9.75;;;;;;;20.54;35.63;94503.56;4994078;28;20161;-73
2023/10/04 10:57:58;;;;;;;19.33;10.02;;;;;;;20.71;35.76;94509.63;4995177;28;20041;-72
2023/10/04 11:00:25;;;;;;;12.45;8.57;;;;;;;20.65;35.81;94509.16;4994782;28;20073;-72
2023/10/04 11:02:54;;;;;;;16.63;9.13;;;;;;;20.76;35.22;94514.75;4995528;28;20114;-73
2023/10/04 11:05:20;;;;;;;17.88;11.15;;;;;;;20.83;35.25;94499.41;4994622;28;20409;-72
2023/10/04 11:07:52;;;;;;;17.75;10.30;;;;;;;20.89;35.33;94508.03;4996904;28;20045;-73
2023/10/04 11:10:19;;;;;;;18.20;8.30;;;;;;;20.99;32.75;94504.72;4993678;28;20053;-72
2023/10/04 11:12:46;;;;;;;17.77;8.90;;;;;;;21.06;33.90;94491.31;4994578;28;20034;-72
2023/10/04 11:15:13;;;;;;;24.65;8.45;;;;;;;21.08;33.69;94501.75;4971557;28;20033;-72
2023/10/04 11:17:40;;;;;;;16.88;8.98;;;;;;;21.07;34.11;94497.53;5001017;28;20099;-72
2023/10/04 11:20:09;;;;;;;21.95;10.38;;;;;;;20.99;33.45;94491.19;4998843;28;20026;-71
2023/10/04 11:22:36;;;;;;;15.25;8.02;;;;;;;21.14;33.95;94493.00;4976211;28;20585;-72
2023/10/04 11:25:03;;;;;;;10.93;6.68;;;;;;;21.13;33.10;94488.72;4996864;28;20041;-71
2023/10/04 11:27:29;;;;;;;14.63;7.95;;;;;;;21.28;34.67;94485.06;4972625;28;20048;-72
2023/10/04 11:29:55;;;;;;;14.13;8.15;;;;;;;21.27;32.66;94478.09;4993453;28;20069;-71
2023/10/04 11:32:21;;;;;;;13.43;7.72;;;;;;;21.42;32.92;94487.97;4996059;28;20816;-71
2023/10/04 11:34:47;;;;;;;11.63;6.10;;;;;;;21.41;32.26;94481.00;4998789;28;20148;-72
2023/10/04 11:37:13;;;;;;;10.88;5.32;;;;;;;21.52;31.74;94472.25;4996669;28;20462;-72
2023/10/04 11:39:39;;;;;;;10.23;5.30;;;;;;;21.66;29.88;94472.47;4993897;28;20035;-72
2023/10/04 11:42:25;;;;;;;9.18;4.90;;;;;;;21.74;31.27;94471.44;4997130;28;20046;-72
2023/10/04 11:44:50;;;;;;;13.20;5.32;;;;;;;21.68;30.93;94464.78;4992353;28;20034;-71
2023/10/04 11:47:32;;;;;;;14.52;5.22;;;;;;;21.66;29.56;94464.34;4984922;28;20018;-71
2023/10/04 11:49:59;;;;;;;9.50;5.10;;;;;;;21.70;29.04;94459.78;4996876;28;20053;-72